Time;durP1;ratioP1;P1;durP2;ratioP2;P2;SDS_P1;SDS_P2;PMS_P1;PMS_P2;Temp;Humidity;BMP_temperature;BMP_pressure;BME280_temperature;BME280_humidity;BME280_pressure;Samples;Min_cycle;Max_cycle;Signal;HPM_P1;HPM_P2
2023/09/21 00:01:53;;;;;;;5.63;1.80;;;;;;;;;;5091164;28;20128;-65
2023/09/21 00:04:19;;;;;;;4.32;1.85;;;;;;;;;;5110162;28;20024;-63
2023/09/21 00:06:44;;;;;;;4.28;1.77;;;;;;;;;;5112378;28;20031;-64
2023/09/21 00:09:10;;;;;;;3.67;1.67;;;;;;;;;;5112785;28;20025;-65
2023/09/21 00:11:36;;;;;;;5.25;2.05;;;;;;;;;;5110642;28;20015;-65
2023/09/21 00:14:02;;;;;;;7.00;2.00;;;;;;;;;;5108210;28;20015;-64
2023/09/21 00:16:27;;;;;;;4.82;2.00;;;;;;;;;;5106606;28;20102;-65
2023/09/21 00:18:53;;;;;;;5.50;1.70;;;;;;;;;;5112004;28;20015;-64
2023/09/21 00:21:18;;;;;;;4.90;1.90;;;;;;;;;;5109494;28;20074;-64
2023/09/21 00:23:44;;;;;;;4.40;1.80;;;;;;;;;;5107067;28;20031;-65
2023/09/21 00:26:10;;;;;;;6.18;1.98;;;;;;;;;;5107936;28;20048;-64
2023/09/21 00:28:35;;;;;;;4.00;1.90;;;;;;;;;;5111909;28;20012;-64
2023/09/21 00:31:02;;;;;;;6.07;1.90;;;;;;;;;;5112881;28;20024;-65
2023/09/21 00:33:28;;;;;;;6.03;2.13;;;;;;;;;;5109342;28;20479;-66
2023/09/21 00:35:54;;;;;;;5.85;2.20;;;;;;;;;;5109977;28;20523;-64
2023/09/21 00:38:20;;;;;;;6.07;2.08;;;;;;;;;;5108681;28;20167;-65
2023/09/21 00:40:45;;;;;;;4.10;1.88;;;;;;;;;;5113086;28;20048;-64
2023/09/21 00:43:20;;;;;;;4.80;1.80;;;;;;;;;;5107085;28;20020;-64
2023/09/21 00:45:48;;;;;;;4.75;2.20;;;;;;;;;;5111331;28;20433;-64
2023/09/21 00:48:13;;;;;;;6.68;2.28;;;;;;;;;;5106253;28;20027;-64
2023/09/21 00:50:41;;;;;;;5.40;1.60;;;;;;;;;;5110656;28;20529;-65
2023/09/21 00:53:07;;;;;;;4.60;2.03;;;;;;;;;;5111560;28;20526;-64
2023/09/21 00:55:39;;;;;;;3.95;1.80;;;;;;;;;;5110451;28;20084;-64
2023/09/21 00:58:05;;;;;;;;;;;;;;;;;;5114097;28;20475;-64
2023/09/21 01:03:37;;;;;;;3.72;1.67;;;;;;;;;;5087751;22;20055;-65
2023/09/21 01:06:02;;;;;;;4.45;1.90;;;;;;;;;;5069186;28;20039;-66
2023/09/21 01:08:34;;;;;;;4.88;1.92;;;;;;;;;;5067141;28;20020;-65
2023/09/21 01:11:07;;;;;;;5.80;2.33;;;;;;;;;;5069326;28;20028;-65
2023/09/21 01:13:35;;;;;;;5.35;1.90;;;;;;;;;;5071816;28;20023;-66
2023/09/21 01:16:01;;;;;;;3.88;1.70;;;;;;;;;;5068875;28;20059;-65
2023/09/21 01:18:27;;;;;;;4.00;2.08;;;;;;;;;;5070399;28;20017;-65
2023/09/21 01:21:04;;;;;;;4.15;1.73;;;;;;;;;;5069093;28;20036;-65
2023/09/21 01:23:34;;;;;;;5.82;1.88;;;;;;;;;;5072131;28;20404;-65
2023/09/21 01:26:00;;;;;;;4.15;2.00;;;;;;;;;;5068006;28;20025;-65
2023/09/21 01:28:29;;;;;;;5.38;1.85;;;;;;;;;;5070658;28;20094;-65
2023/09/21 01:30:56;;;;;;;4.97;2.00;;;;;;;;;;5072430;28;20383;-66
2023/09/21 01:33:23;;;;;;;4.10;1.80;;;;;;;;;;5072587;28;20099;-65
2023/09/21 01:35:48;;;;;;;5.28;2.00;;;;;;;;;;5067205;28;20388;-65
2023/09/21 01:38:13;;;;;;;4.57;1.80;;;;;;;;;;5067638;28;20033;-65
2023/09/21 01:40:40;;;;;;;5.18;1.77;;;;;;;;;;5071720;28;20025;-66
2023/09/21 01:43:07;;;;;;;5.15;1.83;;;;;;;;;;5064512;28;20035;-65
2023/09/21 01:45:33;;;;;;;5.72;1.80;;;;;;;;;;5070107;28;20013;-65
2023/09/21 01:48:00;;;;;;;7.03;1.90;;;;;;;;;;5072303;28;20039;-65
2023/09/21 01:50:25;;;;;;;8.13;2.78;;;;;;;;;;5072651;28;20012;-65
2023/09/21 01:52:50;;;;;;;4.30;1.90;;;;;;;;;;5071560;28;20472;-65
2023/09/21 01:55:16;;;;;;;6.32;1.80;;;;;;;;;;5071860;28;20024;-68
2023/09/21 01:57:45;;;;;;;5.70;1.80;;;;;;;;;;5072130;28;20384;-65
2023/09/21 02:00:25;;;;;;;5.43;1.80;;;;;;;;;;5068653;28;20029;-65
2023/09/21 02:02:51;;;;;;;3.70;1.92;;;;;;;;;;5057649;28;20059;-66
2023/09/21 02:05:16;;;;;;;4.95;2.05;;;;;;;;;;5052138;28;20021;-65
2023/09/21 02:07:43;;;;;;;4.20;1.70;;;;;;;;;;5051400;28;20041;-65
2023/09/21 02:10:11;;;;;;;5.97;2.03;;;;;;;;;;5049831;28;20040;-64
2023/09/21 02:12:38;;;;;;;6.30;2.03;;;;;;;;;;5051905;28;20100;-65
2023/09/21 02:15:04;;;;;;;4.35;1.88;;;;;;;;;;5051984;28;20101;-65
2023/09/21 02:17:30;;;;;;;4.43;1.85;;;;;;;;;;5049981;28;20155;-65
2023/09/21 02:19:55;;;;;;;5.60;1.80;;;;;;;;;;5034087;28;20104;-65
2023/09/21 02:22:20;;;;;;;6.75;1.90;;;;;;;;;;5051974;28;20104;-64
2023/09/21 02:24:46;;;;;;;6.90;2.00;;;;;;;;;;5033600;28;20098;-65
2023/09/21 02:27:11;;;;;;;5.70;1.90;;;;;;;;;;5051921;28;20025;-65
2023/09/21 02:29:40;;;;;;;6.00;1.90;;;;;;;;;;5052058;28;20017;-66
2023/09/21 02:32:05;;;;;;;4.72;2.05;;;;;;;;;;5051962;28;20031;-65
2023/09/21 02:34:31;;;;;;;7.38;1.73;;;;;;;;;;5050536;28;20100;-66
2023/09/21 02:36:56;;;;;;;6.15;1.80;;;;;;;;;;5048869;28;20024;-65
2023/09/21 02:39:21;;;;;;;4.78;1.80;;;;;;;;;;5033671;28;20465;-65
2023/09/21 02:41:47;;;;;;;5.72;1.95;;;;;;;;;;5051767;28;20025;-65
2023/09/21 02:44:13;;;;;;;4.72;1.80;;;;;;;;;;5050951;28;20032;-66
2023/09/21 02:46:38;;;;;;;5.10;2.00;;;;;;;;;;5051428;28;20036;-65
2023/09/21 02:49:05;;;;;;;4.45;1.92;;;;;;;;;;5051350;28;20510;-65
2023/09/21 02:51:32;;;;;;;5.85;2.03;;;;;;;;;;5051056;28;20424;-66
2023/09/21 02:53:59;;;;;;;5.00;1.77;;;;;;;;;;5048825;28;20017;-65
2023/09/21 02:56:25;;;;;;;5.57;2.10;;;;;;;;;;5051502;28;20013;-66
2023/09/21 02:58:52;;;;;;;3.33;1.65;;;;;;;;;;5049768;28;20020;-65
2023/09/21 03:01:20;;;;;;;4.38;1.95;;;;;;;;;;5050262;28;20028;-65
2023/09/21 03:03:46;;;;;;;5.22;1.88;;;;;;;;;;5051144;28;20045;-67
2023/09/21 03:06:16;;;;;;;6.22;2.10;;;;;;;;;;5051363;28;20546;-65
2023/09/21 03:08:41;;;;;;;4.88;1.92;;;;;;;;;;5049116;28;20021;-66
2023/09/21 03:11:10;;;;;;;4.85;2.10;;;;;;;;;;5051592;28;20028;-66
2023/09/21 03:13:36;;;;;;;4.40;2.00;;;;;;;;;;5048348;28;20014;-65
2023/09/21 03:16:01;;;;;;;5.25;1.90;;;;;;;;;;5050318;28;20120;-65
2023/09/21 03:18:27;;;;;;;4.60;1.80;;;;;;;;;;5051305;28;20096;-67
2023/09/21 03:20:53;;;;;;;4.40;1.70;;;;;;;;;;5051567;28;20055;-65
2023/09/21 03:23:20;;;;;;;3.90;1.83;;;;;;;;;;5051341;28;20044;-65
2023/09/21 03:25:53;;;;;;;3.95;1.88;;;;;;;;;;5051164;28;20028;-65
2023/09/21 03:28:19;;;;;;;4.93;2.05;;;;;;;;;;5051065;28;20021;-65
2023/09/21 03:30:52;;;;;;;5.22;2.05;;;;;;;;;;5050899;28;20021;-65
2023/09/21 03:33:20;;;;;;;7.72;2.00;;;;;;;;;;5051365;28;20108;-65
2023/09/21 03:35:45;;;;;;;3.65;1.83;;;;;;;;;;5046868;28;20078;-64
2023/09/21 03:38:14;;;;;;;5.38;2.05;;;;;;;;;;5051073;28;20029;-66
2023/09/21 03:40:40;;;;;;;5.07;2.13;;;;;;;;;;5050397;28;20017;-65
2023/09/21 03:43:07;;;;;;;3.90;1.70;;;;;;;;;;5050441;28;20052;-65
2023/09/21 03:45:32;;;;;;;6.30;1.90;;;;;;;;;;5051360;28;20553;-65
2023/09/21 03:47:59;;;;;;;4.18;1.70;;;;;;;;;;5050635;28;20104;-66
2023/09/21 03:50:25;;;;;;;4.07;1.80;;;;;;;;;;5050789;28;20016;-65
2023/09/21 03:52:52;;;;;;;4.07;2.00;;;;;;;;;;5054827;28;20082;-65
2023/09/21 03:55:17;;;;;;;5.35;1.95;;;;;;;;;;5054520;28;20017;-65
2023/09/21 03:57:46;;;;;;;4.88;2.20;;;;;;;;;;5054382;28;20024;-65
2023/09/21 04:00:47;;;;;;;4.68;1.75;;;;;;;;;;5053591;28;20495;-65
2023/09/21 04:03:10;;;;;;;4.57;1.88;;;;;;;;;;5050759;28;20513;-65
2023/09/21 04:05:36;;;;;;;4.18;1.90;;;;;;;;;;5054527;28;20054;-65
2023/09/21 04:08:02;;;;;;;5.63;2.20;;;;;;;;;;5053475;28;20385;-65
2023/09/21 04:10:27;;;;;;;4.38;1.67;;;;;;;;;;5054309;28;20021;-67
2023/09/21 04:12:56;;;;;;;7.07;1.90;;;;;;;;;;5054153;28;20044;-65
2023/09/21 04:15:24;;;;;;;9.52;1.88;;;;;;;;;;5053489;28;20469;-64
2023/09/21 04:17:50;;;;;;;6.38;1.73;;;;;;;;;;5053363;28;20025;-66
2023/09/21 04:20:16;;;;;;;4.63;1.95;;;;;;;;;;5054414;28;20120;-65
2023/09/21 04:22:42;;;;;;;5.03;2.00;;;;;;;;;;5036035;28;20025;-65
2023/09/21 04:25:08;;;;;;;4.68;2.30;;;;;;;;;;5053829;28;20048;-65
2023/09/21 04:27:35;;;;;;;3.95;1.70;;;;;;;;;;5053746;28;20024;-64
2023/09/21 04:30:01;;;;;;;5.00;1.70;;;;;;;;;;5053514;28;20050;-65
2023/09/21 04:32:26;;;;;;;4.75;1.92;;;;;;;;;;5053591;28;20021;-64
2023/09/21 04:34:51;;;;;;;4.28;1.90;;;;;;;;;;5052630;28;20112;-66
2023/09/21 04:37:16;;;;;;;5.82;2.10;;;;;;;;;;5053231;28;20327;-64
2023/09/21 04:39:42;;;;;;;5.97;1.80;;;;;;;;;;5053846;28;20106;-65
2023/09/21 04:42:07;;;;;;;4.13;1.90;;;;;;;;;;5052166;28;20378;-65
2023/09/21 04:44:34;;;;;;;4.75;1.90;;;;;;;;;;5052690;28;20020;-66
2023/09/21 04:46:59;;;;;;;5.38;1.90;;;;;;;;;;5052628;28;20028;-64
2023/09/21 04:49:24;;;;;;;4.72;1.60;;;;;;;;;;5051874;28;20025;-65
2023/09/21 04:51:49;;;;;;;6.43;1.90;;;;;;;;;;5049901;28;20064;-67
2023/09/21 04:54:14;;;;;;;4.35;1.80;;;;;;;;;;5035171;28;20017;-65
2023/09/21 04:56:40;;;;;;;3.40;1.60;;;;;;;;;;5050637;28;20017;-66
2023/09/21 04:59:05;;;;;;;6.93;2.13;;;;;;;;;;5052342;28;20017;-67
2023/09/21 05:01:31;;;;;;;6.68;2.03;;;;;;;;;;5052152;28;20032;-65
2023/09/21 05:03:56;;;;;;;4.50;2.15;;;;;;;;;;5049643;28;20132;-66
2023/09/21 05:06:23;;;;;;;4.35;1.50;;;;;;;;;;5051967;28;20021;-66
2023/09/21 05:08:48;;;;;;;6.10;1.80;;;;;;;;;;5050686;28;20020;-65
2023/09/21 05:11:14;;;;;;;5.07;1.88;;;;;;;;;;5048864;28;20454;-66
2023/09/21 05:13:40;;;;;;;4.18;1.80;;;;;;;;;;5053055;28;20009;-65
2023/09/21 05:16:05;;;;;;;3.67;1.60;;;;;;;;;;5051331;28;20020;-66
2023/09/21 05:18:30;;;;;;;3.47;1.50;;;;;;;;;;5052251;28;20389;-68
2023/09/21 05:20:56;;;;;;;4.10;1.70;;;;;;;;;;5050999;28;20044;-66
2023/09/21 05:23:21;;;;;;;4.22;1.73;;;;;;;;;;5031842;28;20021;-66
2023/09/21 05:25:46;;;;;;;3.90;1.60;;;;;;;;;;5049646;28;20094;-66
2023/09/21 05:28:12;;;;;;;3.72;1.48;;;;;;;;;;5051924;28;20095;-67
2023/09/21 05:30:38;;;;;;;6.43;1.95;;;;;;;;;;5049276;28;20021;-67
2023/09/21 05:33:05;;;;;;;3.50;1.40;;;;;;;;;;5052324;28;20021;-66
2023/09/21 05:35:31;;;;;;;3.72;1.60;;;;;;;;;;5051775;28;20621;-66
2023/09/21 05:37:56;;;;;;;4.95;1.60;;;;;;;;;;5052078;28;20021;-67
2023/09/21 05:40:21;;;;;;;4.15;1.67;;;;;;;;;;5048506;28;20024;-67
2023/09/21 05:42:47;;;;;;;2.53;1.30;;;;;;;;;;5052109;28;20091;-65
2023/09/21 05:45:12;;;;;;;5.72;1.75;;;;;;;;;;5052252;28;20071;-66
2023/09/21 05:47:38;;;;;;;3.30;1.50;;;;;;;;;;5051770;28;20083;-66
2023/09/21 05:50:05;;;;;;;3.92;1.60;;;;;;;;;;5052084;28;20024;-66
2023/09/21 05:52:32;;;;;;;5.18;1.52;;;;;;;;;;5052244;28;20531;-65
2023/09/21 05:54:57;;;;;;;7.50;1.80;;;;;;;;;;5052125;28;20067;-66
2023/09/21 05:57:22;;;;;;;4.00;1.40;;;;;;;;;;5052125;28;20025;-67
2023/09/21 05:59:49;;;;;;;3.97;1.30;;;;;;;;;;5051945;28;20050;-66
2023/09/21 06:02:15;;;;;;;4.82;1.60;;;;;;;;;;5052482;28;20469;-66
2023/09/21 06:04:41;;;;;;;6.32;1.77;;;;;;;;;;5053527;28;20105;-67
2023/09/21 06:07:07;;;;;;;4.07;1.60;;;;;;;;;;5053062;28;20025;-66
2023/09/21 06:09:33;;;;;;;5.25;1.88;;;;;;;;;;5053500;28;20028;-67
2023/09/21 06:11:59;;;;;;;5.40;1.70;;;;;;;;;;5052746;28;20381;-66
2023/09/21 06:14:24;;;;;;;3.70;1.30;;;;;;;;;;5051243;28;20013;-67
2023/09/21 06:16:51;;;;;;;5.18;1.77;;;;;;;;;;5051897;28;20013;-68
2023/09/21 06:19:17;;;;;;;4.25;1.50;;;;;;;;;;5048024;28;20083;-67
2023/09/21 06:21:42;;;;;;;4.00;1.50;;;;;;;;;;5050651;28;20025;-66
2023/09/21 06:24:08;;;;;;;3.53;1.33;;;;;;;;;;5052619;28;20076;-66
2023/09/21 06:26:34;;;;;;;6.03;1.70;;;;;;;;;;5052882;28;20025;-67
2023/09/21 06:28:59;;;;;;;3.88;1.48;;;;;;;;;;5053239;28;20358;-67
2023/09/21 06:31:24;;;;;;;3.38;1.50;;;;;;;;;;5053147;28;20025;-67
2023/09/21 06:33:50;;;;;;;3.85;1.55;;;;;;;;;;5052852;28;20061;-68
2023/09/21 06:36:19;;;;;;;4.88;1.70;;;;;;;;;;5052882;28;20533;-67
2023/09/21 06:38:45;;;;;;;4.82;1.58;;;;;;;;;;5035819;28;20060;-66
2023/09/21 06:41:10;;;;;;;3.45;1.50;;;;;;;;;;5047446;28;20013;-67
2023/09/21 06:43:37;;;;;;;5.10;1.40;;;;;;;;;;5052348;28;20466;-67
2023/09/21 06:46:03;;;;;;;5.25;1.50;;;;;;;;;;5052868;28;20048;-67
2023/09/21 06:48:28;;;;;;;3.20;1.40;;;;;;;;;;5052639;28;20384;-67
2023/09/21 06:50:53;;;;;;;4.82;1.30;;;;;;;;;;5052697;28;20017;-67
2023/09/21 06:53:18;;;;;;;3.25;1.30;;;;;;;;;;5052738;28;20376;-66
2023/09/21 06:55:44;;;;;;;3.80;1.40;;;;;;;;;;5052717;28;20024;-67
2023/09/21 06:58:09;;;;;;;3.88;1.50;;;;;;;;;;5052230;28;20091;-67
2023/09/21 07:00:37;;;;;;;4.13;1.48;;;;;;;;;;5052870;28;20021;-66
2023/09/21 07:03:02;;;;;;;3.75;1.80;;;;;;;;;;5052073;28;20056;-67
2023/09/21 07:05:28;;;;;;;6.97;1.67;;;;;;;;;;5050354;28;20025;-66
2023/09/21 07:07:54;;;;;;;5.88;1.95;;;;;;;;;;5052471;28;20104;-66
2023/09/21 07:10:19;;;;;;;3.83;1.58;;;;;;;;;;5050326;28;20060;-66
2023/09/21 07:12:45;;;;;;;4.78;1.73;;;;;;;;;;5052798;28;20028;-67
2023/09/21 07:15:10;;;;;;;3.45;1.50;;;;;;;;;;5052797;28;20396;-67
2023/09/21 07:17:36;;;;;;;5.85;1.83;;;;;;;;;;5052314;28;20427;-67
2023/09/21 07:20:04;;;;;;;4.63;1.80;;;;;;;;;;5052342;28;20032;-66
2023/09/21 07:22:29;;;;;;;8.38;1.70;;;;;;;;;;5052527;28;20094;-66
2023/09/21 07:24:54;;;;;;;3.42;1.58;;;;;;;;;;5051962;28;20025;-66
2023/09/21 07:27:22;;;;;;;5.80;1.40;;;;;;;;;;5056320;28;20029;-65
2023/09/21 07:29:47;;;;;;;6.20;1.70;;;;;;;;;;5056198;28;20036;-66
2023/09/21 07:32:12;;;;;;;4.90;1.58;;;;;;;;;;5055887;28;20013;-66
2023/09/21 07:34:37;;;;;;;5.15;1.80;;;;;;;;;;5056063;28;20021;-66
2023/09/21 07:37:03;;;;;;;5.90;1.40;;;;;;;;;;5056063;28;20412;-66
2023/09/21 07:39:28;;;;;;;2.88;1.38;;;;;;;;;;5055683;28;20108;-66
2023/09/21 07:41:53;;;;;;;3.17;1.38;;;;;;;;;;5055734;28;20497;-66
2023/09/21 07:44:19;;;;;;;4.40;1.60;;;;;;;;;;5055124;28;20385;-66
2023/09/21 07:46:44;;;;;;;5.03;1.70;;;;;;;;;;5055803;28;20389;-66
2023/09/21 07:49:10;;;;;;;5.68;1.70;;;;;;;;;;5055522;28;20040;-66
2023/09/21 07:51:35;;;;;;;6.45;2.05;;;;;;;;;;5055944;28;20347;-66
2023/09/21 07:54:03;;;;;;;3.60;1.50;;;;;;;;;;5055848;28;20024;-66
2023/09/21 07:56:29;;;;;;;4.00;1.52;;;;;;;;;;5055944;28;20025;-66
2023/09/21 07:58:55;;;;;;;4.45;1.30;;;;;;;;;;5055450;28;20021;-66
2023/09/21 08:01:21;;;;;;;10.55;2.13;;;;;;;;;;5037540;28;20495;-67
2023/09/21 08:03:46;;;;;;;4.53;1.58;;;;;;;;;;5055124;28;20497;-67
2023/09/21 08:06:12;;;;;;;4.72;1.60;;;;;;;;;;5055344;28;20017;-67
2023/09/21 08:08:37;;;;;;;4.68;1.58;;;;;;;;;;5055425;28;20033;-67
2023/09/21 08:11:02;;;;;;;4.25;1.48;;;;;;;;;;5055353;28;20021;-68
2023/09/21 08:13:29;;;;;;;3.15;1.35;;;;;;;;;;5055280;28;20037;-67
2023/09/21 08:15:54;;;;;;;5.78;1.48;;;;;;;;;;5054609;28;20052;-67
2023/09/21 08:18:19;;;;;;;8.27;1.40;;;;;;;;;;5055062;28;20053;-68
2023/09/21 08:20:45;;;;;;;4.05;1.30;;;;;;;;;;5055328;28;20041;-67
2023/09/21 08:23:10;;;;;;;3.20;1.20;;;;;;;;;;5054779;28;20108;-67
2023/09/21 08:25:36;;;;;;;4.13;1.60;;;;;;;;;;5055175;28;20092;-67
2023/09/21 08:28:05;;;;;;;3.75;1.30;;;;;;;;;;5054467;28;20028;-67
2023/09/21 08:30:31;;;;;;;4.05;1.40;;;;;;;;;;5054166;28;20106;-67
2023/09/21 08:32:57;;;;;;;3.90;1.50;;;;;;;;;;5054648;28;20032;-67
2023/09/21 08:35:22;;;;;;;4.30;1.50;;;;;;;;;;5054850;28;20025;-67
2023/09/21 08:37:50;;;;;;;6.78;1.60;;;;;;;;;;5053926;28;20033;-67
2023/09/21 08:40:15;;;;;;;4.57;1.30;;;;;;;;;;5055241;28;20100;-68
2023/09/21 08:42:41;;;;;;;4.65;1.40;;;;;;;;;;5054804;28;20052;-67
2023/09/21 08:45:09;;;;;;;4.28;1.40;;;;;;;;;;5054531;28;20025;-67
2023/09/21 08:47:35;;;;;;;4.43;1.50;;;;;;;;;;5054514;28;20036;-67
2023/09/21 08:50:03;;;;;;;5.35;1.25;;;;;;;;;;5054345;28;20029;-67
2023/09/21 08:52:32;;;;;;;3.85;1.40;;;;;;;;;;5054331;28;20032;-67
2023/09/21 08:54:58;;;;;;;3.08;1.20;;;;;;;;;;5054315;28;20017;-67
2023/09/21 08:57:23;;;;;;;4.25;1.30;;;;;;;;;;5054666;28;20036;-67
2023/09/21 08:59:50;;;;;;;3.38;1.33;;;;;;;;;;5053774;28;20024;-67
2023/09/21 09:02:15;;;;;;;5.18;1.50;;;;;;;;;;5052880;28;20074;-66
2023/09/21 09:04:41;;;;;;;3.28;1.67;;;;;;;;;;5054224;28;20393;-66
2023/09/21 09:07:07;;;;;;;5.40;1.60;;;;;;;;;;5054597;28;20029;-66
2023/09/21 09:09:32;;;;;;;3.95;1.30;;;;;;;;;;5053912;28;20090;-66
2023/09/21 09:11:57;;;;;;;4.28;1.40;;;;;;;;;;5054050;28;20024;-66
2023/09/21 09:14:23;;;;;;;4.78;1.60;;;;;;;;;;5054203;28;20017;-66
2023/09/21 09:16:49;;;;;;;9.25;1.55;;;;;;;;;;5053929;28;20029;-66
2023/09/21 09:19:15;;;;;;;5.80;1.38;;;;;;;;;;5053762;28;20075;-67
2023/09/21 09:21:44;;;;;;;4.25;1.48;;;;;;;;;;5052007;28;20021;-71
2023/09/21 09:24:11;;;;;;;3.53;1.30;;;;;;;;;;5054032;28;20029;-71
2023/09/21 09:26:36;;;;;;;5.80;1.30;;;;;;;;;;5053423;28;20025;-71
2023/09/21 09:29:06;;;;;;;5.13;1.27;;;;;;;;;;5054236;28;20020;-71
2023/09/21 09:31:32;;;;;;;3.17;1.30;;;;;;;;;;5052869;28;20020;-71
2023/09/21 09:34:00;;;;;;;4.80;1.52;;;;;;;;;;5053373;28;20111;-71
2023/09/21 09:36:25;;;;;;;6.88;1.48;;;;;;;;;;5053958;28;20021;-72
2023/09/21 09:38:52;;;;;;;3.55;1.40;;;;;;;;;;5053990;28;20457;-71
2023/09/21 09:41:18;;;;;;;5.05;1.30;;;;;;;;;;5053737;28;20024;-70
2023/09/21 09:43:45;;;;;;;2.80;1.23;;;;;;;;;;5037063;28;20039;-72
2023/09/21 09:46:12;;;;;;;3.67;1.20;;;;;;;;;;5053524;28;20021;-71
2023/09/21 09:48:39;;;;;;;5.30;1.23;;;;;;;;;;5052129;28;20347;-71
2023/09/21 09:51:11;;;;;;;8.93;1.75;;;;;;;;;;5053209;28;20362;-72
2023/09/21 09:53:38;;;;;;;4.85;1.40;;;;;;;;;;5053851;28;20017;-71
2023/09/21 09:56:10;;;;;;;4.00;1.33;;;;;;;;;;5053102;28;20032;-72
2023/09/21 09:58:41;;;;;;;6.10;1.48;;;;;;;;;;5053280;28;20025;-71
2023/09/21 10:01:08;;;;;;;3.88;1.33;;;;;;;;;;5053382;28;20497;-71
2023/09/21 10:03:35;;;;;;;4.40;1.50;;;;;;;;;;5052653;28;20120;-71
2023/09/21 10:06:00;;;;;;;3.67;1.50;;;;;;;;;;5053084;28;20024;-71
2023/09/21 10:08:26;;;;;;;4.60;1.30;;;;;;;;;;5053296;28;20032;-72
2023/09/21 10:10:54;;;;;;;4.80;1.45;;;;;;;;;;5052650;28;20094;-71
2023/09/21 10:13:25;;;;;;;4.40;1.40;;;;;;;;;;5052480;28;20013;-71
2023/09/21 10:15:57;;;;;;;5.00;1.60;;;;;;;;;;5052765;28;20106;-72
2023/09/21 10:18:35;;;;;;;4.68;1.40;;;;;;;;;;5053042;28;20494;-71
2023/09/21 10:21:19;;;;;;;5.07;1.60;;;;;;;;;;5052392;28;20380;-71
2023/09/21 10:24:04;;;;;;;10.93;1.60;;;;;;;;;;5051364;28;20028;-72
2023/09/21 10:26:30;;;;;;;5.10;1.67;;;;;;;;;;5052182;28;20029;-71
2023/09/21 10:28:56;;;;;;;5.03;1.67;;;;;;;;;;5052762;28;20044;-71
2023/09/21 10:31:22;;;;;;;4.97;1.60;;;;;;;;;;5052775;28;20017;-67
2023/09/21 10:33:51;;;;;;;7.13;1.58;;;;;;;;;;5052056;28;20017;-66
2023/09/21 10:36:23;;;;;;;5.07;1.40;;;;;;;;;;5039742;28;20044;-67
2023/09/21 10:39:09;;;;;;;3.72;1.50;;;;;;;;;;5052598;28;20028;-66
2023/09/21 10:41:35;;;;;;;4.45;1.67;;;;;;;;;;5052904;28;20400;-67
2023/09/21 10:44:02;;;;;;;5.78;1.60;;;;;;;;;;5052949;28;20535;-67
2023/09/21 10:46:31;;;;;;;5.80;1.40;;;;;;;;;;5051299;28;20104;-67
2023/09/21 10:49:03;;;;;;;4.97;1.63;;;;;;;;;;5052617;28;20028;-67
2023/09/21 10:51:28;;;;;;;4.57;1.73;;;;;;;;;;5052546;28;20045;-66
2023/09/21 10:53:56;;;;;;;6.78;1.60;;;;;;;;;;5052729;28;20481;-68
2023/09/21 10:56:23;;;;;;;3.97;1.55;;;;;;;;;;5052567;28;20021;-67
2023/09/21 10:58:48;;;;;;;4.75;1.60;;;;;;;;;;5052367;28;20032;-66
2023/09/21 11:01:13;;;;;;;4.43;1.63;;;;;;;;;;5043262;28;20021;-67
2023/09/21 11:03:40;;;;;;;5.18;1.60;;;;;;;;;;5055799;28;20041;-66
2023/09/21 11:06:05;;;;;;;4.57;1.55;;;;;;;;;;5057017;28;20049;-66
2023/09/21 11:08:31;;;;;;;3.65;1.50;;;;;;;;;;5056957;28;20059;-67
2023/09/21 11:10:56;;;;;;;3.38;1.30;;;;;;;;;;5056632;28;20020;-66
2023/09/21 11:13:23;;;;;;;6.15;1.70;;;;;;;;;;5056591;28;20021;-67
2023/09/21 11:15:50;;;;;;;3.88;1.63;;;;;;;;;;5056687;28;20347;-67
2023/09/21 11:18:15;;;;;;;6.13;1.75;;;;;;;;;;5055074;28;20013;-67
2023/09/21 11:20:41;;;;;;;5.05;1.50;;;;;;;;;;5050573;28;20099;-67
2023/09/21 11:23:07;;;;;;;5.50;1.63;;;;;;;;;;5055950;28;20021;-67
2023/09/21 11:25:33;;;;;;;5.60;1.70;;;;;;;;;;5056627;28;20094;-66
2023/09/21 11:27:58;;;;;;;9.25;1.50;;;;;;;;;;5056155;28;20029;-67
2023/09/21 11:30:25;;;;;;;3.50;1.60;;;;;;;;;;5056369;28;20112;-67
2023/09/21 11:32:51;;;;;;;4.72;1.40;;;;;;;;;;5056474;28;20034;-66
2023/09/21 11:35:17;;;;;;;4.25;1.40;;;;;;;;;;5056189;28;20487;-67
2023/09/21 11:37:43;;;;;;;3.28;1.50;;;;;;;;;;5055758;28;20029;-67
2023/09/21 11:40:12;;;;;;;5.35;1.40;;;;;;;;;;5056156;28;20017;-67
2023/09/21 11:42:43;;;;;;;2.63;1.20;;;;;;;;;;5056293;28;20049;-67
2023/09/21 11:45:19;;;;;;;3.95;1.27;;;;;;;;;;5055630;28;20044;-67
2023/09/21 11:47:54;;;;;;;4.03;1.50;;;;;;;;;;5055138;28;20384;-68
2023/09/21 11:50:20;;;;;;;4.88;1.40;;;;;;;;;;5055577;28;20021;-66
2023/09/21 11:52:46;;;;;;;4.30;1.30;;;;;;;;;;5037549;28;20504;-68
2023/09/21 11:55:11;;;;;;;3.28;1.13;;;;;;;;;;5055723;28;20021;-66
2023/09/21 11:57:37;;;;;;;5.70;1.50;;;;;;;;;;5055678;28;20039;-66
2023/09/21 12:00:13;;;;;;;6.07;1.40;;;;;;;;;;5055296;28;20099;-67
2023/09/21 12:02:38;;;;;;;15.85;1.40;;;;;;;;;;5055580;28;20555;-66
2023/09/21 12:05:09;;;;;;;3.92;1.30;;;;;;;;;;5055295;28;20028;-67
2023/09/21 12:07:34;;;;;;;4.82;1.40;;;;;;;;;;5055393;28;20025;-67
2023/09/21 12:09:59;;;;;;;6.32;1.63;;;;;;;;;;5055334;28;20025;-66
2023/09/21 12:12:26;;;;;;;4.45;1.27;;;;;;;;;;5054605;28;20067;-66
2023/09/21 12:14:51;;;;;;;4.15;1.30;;;;;;;;;;5054923;28;20444;-67
2023/09/21 12:17:19;;;;;;;2.72;1.00;;;;;;;;;;5055001;28;20021;-68
2023/09/21 12:19:45;;;;;;;4.13;1.25;;;;;;;;;;5055208;28;20021;-67
2023/09/21 12:22:11;;;;;;;3.05;1.30;;;;;;;;;;5054921;28;20381;-66
2023/09/21 12:24:37;;;;;;;3.03;1.10;;;;;;;;;;5055068;28;20029;-66
2023/09/21 12:27:06;;;;;;;5.43;1.10;;;;;;;;;;5054940;28;20120;-67
2023/09/21 12:29:33;;;;;;;4.82;1.20;;;;;;;;;;5055334;28;20025;-68
2023/09/21 12:31:58;;;;;;;5.70;1.00;;;;;;;;;;5055238;28;20025;-66
2023/09/21 12:34:24;;;;;;;3.25;1.10;;;;;;;;;;5055094;28;20362;-67
2023/09/21 12:36:49;;;;;;;4.10;1.20;;;;;;;;;;5054960;28;20110;-66
2023/09/21 12:39:15;;;;;;;2.42;1.17;;;;;;;;;;5054970;28;20520;-68
2023/09/21 12:41:43;;;;;;;3.97;1.08;;;;;;;;;;5055289;28;20087;-66
2023/09/21 12:44:10;;;;;;;3.55;1.17;;;;;;;;;;5054623;28;20024;-67
2023/09/21 12:46:36;;;;;;;2.35;1.10;;;;;;;;;;5054763;28;20100;-67
2023/09/21 12:49:01;;;;;;;2.28;1.02;;;;;;;;;;5055010;28;20094;-66
2023/09/21 12:51:28;;;;;;;3.63;1.15;;;;;;;;;;5054728;28;20033;-66
2023/09/21 12:53:53;;;;;;;4.55;1.10;;;;;;;;;;5054368;28;20081;-67
2023/09/21 12:56:18;;;;;;;3.00;1.27;;;;;;;;;;5053985;28;20028;-66
2023/09/21 12:58:43;;;;;;;2.83;1.10;;;;;;;;;;5053863;28;20067;-67
2023/09/21 13:01:09;;;;;;;2.22;1.10;;;;;;;;;;5054624;28;20036;-66
2023/09/21 13:03:35;;;;;;;3.78;1.20;;;;;;;;;;5054246;28;20040;-66
2023/09/21 13:06:01;;;;;;;2.70;1.00;;;;;;;;;;5054196;28;20461;-66
2023/09/21 13:08:26;;;;;;;4.10;1.20;;;;;;;;;;5054772;28;20082;-66
2023/09/21 13:10:52;;;;;;;3.25;1.08;;;;;;;;;;5054367;28;20377;-67
2023/09/21 13:13:17;;;;;;;4.68;1.15;;;;;;;;;;5054011;28;20024;-66
2023/09/21 13:15:42;;;;;;;2.70;1.17;;;;;;;;;;5053860;28;20025;-67
2023/09/21 13:18:08;;;;;;;8.55;1.20;;;;;;;;;;5053943;28;20029;-66
2023/09/21 13:20:33;;;;;;;3.05;1.10;;;;;;;;;;5042548;28;20017;-66
2023/09/21 13:22:59;;;;;;;4.15;1.20;;;;;;;;;;5054355;28;20017;-66
2023/09/21 13:25:24;;;;;;;4.35;1.10;;;;;;;;;;5054131;28;20438;-65
2023/09/21 13:27:50;;;;;;;6.70;1.10;;;;;;;;;;5054057;28;20013;-67
2023/09/21 13:30:17;;;;;;;4.30;1.35;;;;;;;;;;5054481;28;20370;-66
2023/09/21 13:32:42;;;;;;;3.45;1.15;;;;;;;;;;5054121;28;20021;-66
2023/09/21 13:35:08;;;;;;;3.92;1.05;;;;;;;;;;5051514;28;20366;-66
2023/09/21 13:37:34;;;;;;;4.07;1.10;;;;;;;;;;5054012;28;20469;-66
2023/09/21 13:39:59;;;;;;;4.38;1.50;;;;;;;;;;5053302;28;20079;-66
2023/09/21 13:42:24;;;;;;;5.22;1.20;;;;;;;;;;5053646;28;20013;-66
2023/09/21 13:44:50;;;;;;;3.47;1.35;;;;;;;;;;5053605;28;20063;-66
2023/09/21 13:47:15;;;;;;;3.15;1.20;;;;;;;;;;5053322;28;20071;-65
2023/09/21 13:49:40;;;;;;;3.85;1.10;;;;;;;;;;5053414;28;20020;-66
2023/09/21 13:52:06;;;;;;;3.10;1.13;;;;;;;;;;5053703;28;20025;-66
2023/09/21 13:54:31;;;;;;;5.78;1.35;;;;;;;;;;5052967;28;20045;-67
2023/09/21 13:56:56;;;;;;;4.47;1.15;;;;;;;;;;5053363;28;20029;-66
2023/09/21 13:59:22;;;;;;;2.70;1.10;;;;;;;;;;5053443;28;20017;-66
2023/09/21 14:01:47;;;;;;;3.00;1.15;;;;;;;;;;5053304;28;20021;-67
2023/09/21 14:04:13;;;;;;;5.57;1.40;;;;;;;;;;5052787;28;20044;-66
2023/09/21 14:06:38;;;;;;;4.18;1.20;;;;;;;;;;5053656;28;20024;-66
2023/09/21 14:09:05;;;;;;;3.85;1.10;;;;;;;;;;5053334;28;20025;-66
2023/09/21 14:11:30;;;;;;;5.13;1.42;;;;;;;;;;5053217;28;20017;-66
2023/09/21 14:13:55;;;;;;;4.68;1.85;;;;;;;;;;5053163;28;20013;-66
2023/09/21 14:16:21;;;;;;;4.35;1.10;;;;;;;;;;5052863;28;20376;-67
2023/09/21 14:18:46;;;;;;;4.07;1.40;;;;;;;;;;5052761;28;20029;-66
2023/09/21 14:21:11;;;;;;;7.93;1.40;;;;;;;;;;5053302;28;20021;-66
2023/09/21 14:23:37;;;;;;;3.50;1.30;;;;;;;;;;5053034;28;20381;-67
2023/09/21 14:26:03;;;;;;;3.53;1.20;;;;;;;;;;5052985;28;20043;-68
2023/09/21 14:28:28;;;;;;;5.35;1.20;;;;;;;;;;5052858;28;20483;-67
2023/09/21 14:30:54;;;;;;;2.88;1.20;;;;;;;;;;5053179;28;20029;-66
2023/09/21 14:33:19;;;;;;;3.40;1.02;;;;;;;;;;5052793;28;20079;-66
2023/09/21 14:35:45;;;;;;;3.88;1.30;;;;;;;;;;5052805;28;20036;-67
2023/09/21 14:38:11;;;;;;;5.07;1.42;;;;;;;;;;5052362;28;20025;-66
2023/09/21 14:40:36;;;;;;;5.20;1.40;;;;;;;;;;5052712;28;20103;-67
2023/09/21 14:43:01;;;;;;;7.88;1.52;;;;;;;;;;5041043;28;20100;-66